createdAt,value
2018-10-17T00:01:22.665Z,26.03
2018-10-17T00:03:54.688Z,27.17
2018-10-17T00:06:26.706Z,27.17
2018-10-17T00:08:58.669Z,28.40
2018-10-17T00:11:30.690Z,30.30
2018-10-17T00:14:02.669Z,29.00
2018-10-17T00:16:34.675Z,30.30
2018-10-17T00:19:06.713Z,28.23
2018-10-17T00:21:38.709Z,28.67
2018-10-17T00:24:10.705Z,26.07
2018-10-17T00:26:42.704Z,27.50
2018-10-17T00:29:14.754Z,27.63
2018-10-17T00:31:46.716Z,29.17
2018-10-17T00:34:18.769Z,28.77
2018-10-17T00:36:50.833Z,27.97
2018-10-17T00:39:22.825Z,28.90
2018-10-17T00:41:54.849Z,29.50
2018-10-17T00:44:26.836Z,28.67
2018-10-17T00:46:58.887Z,30.97
2018-10-17T00:49:30.829Z,32.57
2018-10-17T00:52:03.033Z,32.20
2018-10-17T00:54:35.048Z,32.60
2018-10-17T00:57:07.037Z,28.63
2018-10-17T00:59:39.070Z,28.43
2018-10-17T01:02:11.072Z,31.60
2018-10-17T01:04:43.045Z,30.47
2018-10-17T01:07:15.140Z,32.50
2018-10-17T01:09:47.053Z,32.40
2018-10-17T01:12:19.103Z,32.47
2018-10-17T01:14:51.112Z,32.20
2018-10-17T01:17:23.119Z,33.53
2018-10-17T01:19:55.098Z,34.20
2018-10-17T01:22:27.089Z,29.77
2018-10-17T01:24:59.129Z,29.47
2018-10-17T01:27:31.256Z,31.50
2018-10-17T01:30:03.583Z,32.73
2018-10-17T01:32:35.621Z,34.77
2018-10-17T01:35:07.690Z,34.10
2018-10-17T01:37:39.616Z,36.20
2018-10-17T01:40:11.585Z,41.13
2018-10-17T01:42:43.583Z,33.80
2018-10-17T01:45:15.589Z,31.23
2018-10-17T01:47:47.633Z,30.43
2018-10-17T01:50:19.658Z,30.67
2018-10-17T01:52:51.678Z,31.13
2018-10-17T01:55:23.681Z,28.50
2018-10-17T01:57:55.670Z,28.87
2018-10-17T02:00:27.697Z,31.70
2018-10-17T02:02:59.673Z,31.37
2018-10-17T02:05:31.684Z,31.73
2018-10-17T02:08:03.669Z,32.40
2018-10-17T02:10:35.679Z,33.93
2018-10-17T02:13:07.758Z,33.37
2018-10-17T02:15:39.705Z,28.20
2018-10-17T02:18:11.708Z,28.37
2018-10-17T02:20:43.726Z,28.20
2018-10-17T02:23:15.754Z,31.47
2018-10-17T02:25:47.705Z,36.27
2018-10-17T02:28:19.721Z,30.97
2018-10-17T02:30:51.726Z,33.10
2018-10-17T02:33:23.697Z,27.47
2018-10-17T02:35:55.721Z,26.93
2018-10-17T02:38:27.735Z,28.10
2018-10-17T02:40:59.767Z,28.23
2018-10-17T02:43:31.696Z,29.63
2018-10-17T02:46:04.217Z,28.97
2018-10-17T02:48:37.010Z,31.43
2018-10-17T02:51:09.019Z,32.13
2018-10-17T02:53:41.181Z,32.60
2018-10-17T02:56:13.157Z,34.50
2018-10-17T02:58:45.154Z,34.10
2018-10-17T03:01:17.258Z,34.50
2018-10-17T03:03:49.201Z,30.10
2018-10-17T03:06:21.191Z,31.83
2018-10-17T03:08:53.213Z,29.77
2018-10-17T03:11:25.254Z,33.37
2018-10-17T03:13:57.519Z,31.37
2018-10-17T03:16:29.529Z,30.57
2018-10-17T03:19:01.807Z,31.03
2018-10-17T03:21:33.741Z,33.77
2018-10-17T03:24:05.786Z,32.73
2018-10-17T03:26:37.789Z,31.40
2018-10-17T03:29:09.849Z,33.10
2018-10-17T03:31:41.847Z,36.93
2018-10-17T03:34:13.877Z,36.00
2018-10-17T03:36:45.946Z,36.67
2018-10-17T03:39:18.020Z,37.67
2018-10-17T03:41:50.028Z,41.00
2018-10-17T03:44:22.039Z,34.60
2018-10-17T03:46:54.088Z,33.03
2018-10-17T03:49:26.141Z,33.67
2018-10-17T03:51:58.089Z,37.60
2018-10-17T03:54:30.086Z,34.17
2018-10-17T03:57:02.095Z,33.27
2018-10-17T03:59:34.197Z,32.13
2018-10-17T04:02:06.116Z,36.00
2018-10-17T04:04:38.109Z,33.63
2018-10-17T04:07:10.136Z,32.60
2018-10-17T04:09:42.181Z,29.00
2018-10-17T04:12:14.125Z,27.63
2018-10-17T04:14:46.147Z,28.27
2018-10-17T04:17:18.197Z,31.20
2018-10-17T04:19:50.154Z,34.47
2018-10-17T04:22:22.163Z,32.50
2018-10-17T04:24:54.189Z,30.43
2018-10-17T04:27:26.193Z,29.07
2018-10-17T04:29:58.204Z,29.37
2018-10-17T04:32:30.223Z,28.73
2018-10-17T04:35:02.292Z,30.87
2018-10-17T04:37:34.276Z,33.00
2018-10-17T04:40:06.302Z,33.87
2018-10-17T04:42:38.302Z,32.20
2018-10-17T04:45:10.561Z,34.57
2018-10-17T04:47:42.707Z,37.53
2018-10-17T04:50:14.639Z,38.10
2018-10-17T04:52:53.417Z,33.33
2018-10-17T04:55:25.414Z,30.70
2018-10-17T04:57:57.440Z,33.53
2018-10-17T05:00:29.431Z,32.57
2018-10-17T05:03:01.478Z,32.90
2018-10-17T05:05:33.503Z,31.93
2018-10-17T05:08:05.529Z,32.67
2018-10-17T05:10:37.572Z,32.67
2018-10-17T05:13:09.661Z,31.90
2018-10-17T05:15:41.681Z,30.97
2018-10-17T05:18:13.655Z,31.17
2018-10-17T05:20:45.721Z,30.33
2018-10-17T05:23:17.743Z,33.67
2018-10-17T05:25:49.738Z,34.57
2018-10-17T05:28:21.771Z,37.10
2018-10-17T05:30:53.783Z,38.47
2018-10-17T05:33:25.802Z,33.33
2018-10-17T05:35:57.787Z,34.37
2018-10-17T05:38:29.785Z,38.37
2018-10-17T05:41:01.896Z,37.27
2018-10-17T05:43:33.871Z,29.40
2018-10-17T05:46:05.858Z,30.07
2018-10-17T05:48:37.896Z,31.67
2018-10-17T05:51:09.901Z,30.60
2018-10-17T05:53:41.922Z,33.80
2018-10-17T05:56:13.917Z,37.70
2018-10-17T05:58:45.971Z,37.83
2018-10-17T06:01:18.025Z,38.80
2018-10-17T06:03:50.002Z,40.30
2018-10-17T06:06:22.045Z,39.27
2018-10-17T06:08:54.050Z,35.57
2018-10-17T06:11:26.026Z,25.93
2018-10-17T06:13:58.041Z,23.83
2018-10-17T06:16:30.098Z,22.30
2018-10-17T06:19:02.134Z,22.63
2018-10-17T06:21:34.110Z,24.30
2018-10-17T06:24:06.421Z,24.67
2018-10-17T06:26:38.617Z,25.40
2018-10-17T06:29:10.691Z,25.53
2018-10-17T06:31:42.641Z,26.50
2018-10-17T06:34:14.768Z,25.70
2018-10-17T06:36:46.693Z,26.40
2018-10-17T06:39:18.693Z,25.47
2018-10-17T06:41:50.730Z,26.67
2018-10-17T06:44:22.732Z,25.73
2018-10-17T06:46:54.772Z,30.80
2018-10-17T06:49:26.763Z,33.60
2018-10-17T06:51:58.777Z,27.90
2018-10-17T06:54:30.933Z,31.90
2018-10-17T06:57:02.865Z,31.80
2018-10-17T06:59:34.844Z,29.53
2018-10-17T07:02:06.907Z,34.17
2018-10-17T07:04:38.881Z,33.97
2018-10-17T07:07:10.921Z,32.50
2018-10-17T07:09:42.885Z,28.37
2018-10-17T07:12:14.854Z,27.17
2018-10-17T07:14:46.873Z,26.20
2018-10-17T07:17:18.945Z,25.23
2018-10-17T07:19:50.956Z,23.60
2018-10-17T07:22:22.977Z,23.07
2018-10-17T07:24:55.001Z,23.93
2018-10-17T07:27:27.000Z,21.67
2018-10-17T07:29:59.030Z,25.23
2018-10-17T07:32:31.018Z,22.93
2018-10-17T07:35:03.069Z,26.73
2018-10-17T07:37:35.066Z,24.37
2018-10-17T07:40:07.073Z,23.92
2018-10-17T07:42:39.074Z,25.33
2018-10-17T07:45:11.089Z,25.10
2018-10-17T07:47:43.098Z,25.02
2018-10-17T07:50:15.111Z,25.52
2018-10-17T07:52:47.096Z,25.32
2018-10-17T07:55:19.110Z,24.57
2018-10-17T07:57:51.095Z,22.58
2018-10-17T08:00:23.255Z,24.00
2018-10-17T08:02:55.178Z,22.40
2018-10-17T08:05:27.185Z,22.60
2018-10-17T08:07:59.202Z,22.82
2018-10-17T08:10:31.225Z,23.65
2018-10-17T08:13:03.217Z,24.55
2018-10-17T08:15:35.254Z,24.15
2018-10-17T08:18:07.338Z,26.17
2018-10-17T08:20:39.272Z,26.57
2018-10-17T08:23:11.298Z,26.40
2018-10-17T08:25:43.290Z,27.58
2018-10-17T08:28:15.286Z,24.95
2018-10-17T08:30:47.295Z,25.70
2018-10-17T08:33:19.322Z,23.20
2018-10-17T08:35:51.389Z,25.30
2018-10-17T08:38:23.418Z,23.52
2018-10-17T08:40:55.467Z,25.72
2018-10-17T08:43:27.461Z,25.52
2018-10-17T08:45:59.468Z,24.55
2018-10-17T08:48:31.503Z,25.62
2018-10-17T08:51:03.573Z,25.75
2018-10-17T08:53:35.583Z,27.45
2018-10-17T08:56:07.697Z,26.85
2018-10-17T08:58:39.638Z,27.60
2018-10-17T09:01:11.652Z,27.35
2018-10-17T09:03:43.693Z,30.35
2018-10-17T09:06:15.769Z,29.55
2018-10-17T09:08:47.780Z,28.73
2018-10-17T09:11:19.822Z,30.15
2018-10-17T09:13:51.802Z,31.35
2018-10-17T09:16:23.849Z,30.65
2018-10-17T09:18:55.818Z,29.80
2018-10-17T09:21:28.479Z,30.00
2018-10-17T09:24:00.173Z,30.68
2018-10-17T09:26:32.211Z,31.57
2018-10-17T09:29:04.216Z,29.12
2018-10-17T09:31:36.250Z,30.77
2018-10-17T09:34:08.290Z,32.28
2018-10-17T09:36:40.297Z,33.88
2018-10-17T09:39:12.335Z,32.33
2018-10-17T09:41:44.353Z,32.23
2018-10-17T09:44:16.342Z,32.42
2018-10-17T09:46:48.393Z,30.35
2018-10-17T09:49:20.390Z,29.65
2018-10-17T09:51:52.459Z,30.43
2018-10-17T09:54:24.502Z,29.67
2018-10-17T09:56:56.555Z,29.48
2018-10-17T09:59:28.561Z,31.40
2018-10-17T10:02:00.639Z,30.40
2018-10-17T10:04:32.601Z,31.20
2018-10-17T10:07:04.625Z,30.37
2018-10-17T10:09:36.635Z,30.30
2018-10-17T10:12:08.677Z,30.02
2018-10-17T10:14:40.658Z,31.77
2018-10-17T10:17:12.749Z,29.72
2018-10-17T10:19:44.750Z,28.45
2018-10-17T10:22:16.864Z,28.95
2018-10-17T10:24:48.895Z,27.37
2018-10-17T10:27:20.886Z,29.12
2018-10-17T10:29:52.961Z,26.93
2018-10-17T10:32:24.983Z,26.15
2018-10-17T10:34:57.004Z,25.15
2018-10-17T10:37:29.030Z,24.32
2018-10-17T10:40:01.080Z,23.87
2018-10-17T10:42:33.088Z,24.02
2018-10-17T10:45:05.442Z,24.02
2018-10-17T10:47:37.511Z,24.55
2018-10-17T10:50:09.805Z,23.77
2018-10-17T10:52:41.837Z,21.87
2018-10-17T10:55:13.857Z,22.93
2018-10-17T10:57:45.888Z,21.75
2018-10-17T11:00:17.972Z,21.40
2018-10-17T11:02:50.054Z,19.20
2018-10-17T11:05:22.309Z,19.73
2018-10-17T11:07:54.178Z,19.35
2018-10-17T11:10:26.179Z,16.87
2018-10-17T11:12:58.188Z,17.45
2018-10-17T11:15:30.228Z,17.90
2018-10-17T11:18:02.255Z,17.25
2018-10-17T11:20:34.295Z,18.35
2018-10-17T11:23:06.380Z,17.02
2018-10-17T11:25:38.342Z,18.37
2018-10-17T11:28:10.401Z,18.02
2018-10-17T11:30:42.394Z,19.60
2018-10-17T11:33:14.541Z,18.30
2018-10-17T11:35:46.465Z,18.37
2018-10-17T11:38:18.485Z,17.73
2018-10-17T11:40:50.523Z,17.95
2018-10-17T11:43:22.547Z,18.00
2018-10-17T11:45:54.537Z,17.62
2018-10-17T11:48:26.586Z,18.20
2018-10-17T11:50:58.655Z,18.67
2018-10-17T11:53:30.634Z,20.25
2018-10-17T11:56:02.734Z,20.00
2018-10-17T11:58:34.763Z,20.77
2018-10-17T12:01:06.794Z,20.08
2018-10-17T12:03:38.872Z,19.90
2018-10-17T12:06:10.859Z,18.85
2018-10-17T12:08:42.858Z,20.88
2018-10-17T12:11:14.915Z,19.92
2018-10-17T12:13:46.886Z,20.77
2018-10-17T12:16:18.926Z,19.82
2018-10-17T12:18:50.921Z,19.57
2018-10-17T12:21:22.999Z,20.50
2018-10-17T12:23:54.977Z,21.10
2018-10-17T12:26:27.074Z,19.67
2018-10-17T12:28:59.235Z,19.92
2018-10-17T12:31:31.117Z,20.65
2018-10-17T12:34:03.168Z,19.17
2018-10-17T12:36:35.161Z,19.80
2018-10-17T12:39:08.963Z,20.00
2018-10-17T12:41:41.444Z,19.77
2018-10-17T12:44:13.520Z,19.98
2018-10-17T12:46:45.448Z,20.00
2018-10-17T12:49:17.582Z,18.95
2018-10-17T12:51:49.517Z,17.25
2018-10-17T12:54:21.546Z,17.45
2018-10-17T12:56:53.558Z,17.98
2018-10-17T12:59:25.637Z,17.45
2018-10-17T13:01:57.647Z,17.90
2018-10-17T13:04:29.678Z,16.82
2018-10-17T13:07:01.709Z,15.93
2018-10-17T13:09:33.747Z,15.68
2018-10-17T13:12:06.046Z,16.27
2018-10-17T13:14:38.068Z,15.83
2018-10-17T13:17:10.184Z,15.50
2018-10-17T13:19:42.090Z,16.10
2018-10-17T13:22:14.093Z,16.35
2018-10-17T13:24:46.187Z,15.65
2018-10-17T13:27:18.126Z,17.73
2018-10-17T13:29:50.142Z,17.17
2018-10-17T13:32:22.139Z,16.15
2018-10-17T13:34:54.208Z,16.45
2018-10-17T13:37:26.263Z,15.50
2018-10-17T13:39:58.281Z,16.25
2018-10-17T13:42:30.346Z,16.67
2018-10-17T13:45:02.392Z,16.62
2018-10-17T13:47:34.398Z,16.77
2018-10-17T13:50:06.467Z,15.88
2018-10-17T13:52:38.545Z,16.95
2018-10-17T13:55:10.649Z,16.70
2018-10-17T13:57:42.648Z,16.48
2018-10-17T14:00:14.686Z,17.05
2018-10-17T14:02:46.715Z,18.80
2018-10-17T14:05:18.724Z,18.35
2018-10-17T14:07:50.755Z,19.60
2018-10-17T14:10:22.726Z,19.42
2018-10-17T14:12:54.774Z,18.70
2018-10-17T14:15:26.780Z,18.30
2018-10-17T14:17:58.883Z,19.62
2018-10-17T14:20:30.912Z,21.23
2018-10-17T14:23:02.949Z,20.43
2018-10-17T14:25:34.960Z,19.92
2018-10-17T14:28:07.223Z,19.70
2018-10-17T14:30:39.262Z,20.75
2018-10-17T14:33:11.423Z,19.55
2018-10-17T14:35:43.279Z,20.97
2018-10-17T14:38:15.301Z,21.68
2018-10-17T14:40:47.336Z,21.73
2018-10-17T14:43:19.436Z,19.80
2018-10-17T14:45:51.439Z,21.07
2018-10-17T14:48:23.509Z,20.60
2018-10-17T14:50:55.529Z,21.80
2018-10-17T14:53:27.552Z,21.17
2018-10-17T14:55:59.597Z,22.47
2018-10-17T14:58:31.598Z,22.37
2018-10-17T15:01:03.701Z,23.13
2018-10-17T15:03:35.711Z,21.43
2018-10-17T15:06:07.717Z,20.47
2018-10-17T15:08:39.747Z,20.90
2018-10-17T15:11:11.851Z,23.00
2018-10-17T15:13:43.825Z,22.70
2018-10-17T15:16:15.855Z,20.77
2018-10-17T15:18:47.881Z,22.93
2018-10-17T15:21:19.916Z,23.33
2018-10-17T15:23:52.005Z,22.37
2018-10-17T15:26:23.983Z,22.20
2018-10-17T15:28:56.082Z,22.53
2018-10-17T15:31:28.739Z,23.20
2018-10-17T15:34:00.618Z,21.50
2018-10-17T15:36:32.629Z,20.03
2018-10-17T15:39:06.749Z,20.87
2018-10-17T15:41:38.777Z,19.10
2018-10-17T15:44:10.810Z,18.87
2018-10-17T15:46:42.835Z,22.03
2018-10-17T15:49:14.862Z,20.80
2018-10-17T15:51:46.846Z,21.83
2018-10-17T15:54:18.931Z,21.63
2018-10-17T15:56:50.883Z,19.57
2018-10-17T15:59:22.923Z,17.10
2018-10-17T16:01:54.987Z,16.77
2018-10-17T16:04:26.978Z,17.53
2018-10-17T16:06:58.981Z,16.20
2018-10-17T16:09:31.029Z,17.20
2018-10-17T16:12:03.076Z,18.43
2018-10-17T16:14:35.200Z,19.67
2018-10-17T16:17:07.293Z,19.63
2018-10-17T16:19:39.328Z,21.77
2018-10-17T16:22:11.326Z,21.00
2018-10-17T16:24:43.358Z,20.30
2018-10-17T16:27:15.355Z,21.53
2018-10-17T16:29:47.723Z,21.87
2018-10-17T16:32:19.707Z,20.97
2018-10-17T16:34:51.711Z,20.57
2018-10-17T16:37:23.726Z,23.20
2018-10-17T16:39:55.768Z,22.23
2018-10-17T16:42:27.793Z,21.57
2018-10-17T16:44:59.831Z,22.00
2018-10-17T16:47:31.895Z,21.90
2018-10-17T16:50:04.814Z,22.10
2018-10-17T16:52:36.821Z,22.67
2018-10-17T16:55:08.996Z,24.23
2018-10-17T16:57:41.038Z,24.33
2018-10-17T17:00:13.103Z,26.67
2018-10-17T17:02:45.098Z,25.50
2018-10-17T17:05:17.119Z,22.73
2018-10-17T17:07:49.130Z,23.47
2018-10-17T17:10:21.131Z,24.13
2018-10-17T17:12:53.132Z,24.40
2018-10-17T17:15:25.134Z,25.87
2018-10-17T17:17:57.181Z,25.60
2018-10-17T17:20:29.204Z,24.60
2018-10-17T17:23:01.217Z,24.13
2018-10-17T17:25:33.249Z,28.40
2018-10-17T17:28:05.313Z,28.00
2018-10-17T17:30:37.346Z,28.07
2018-10-17T17:33:09.467Z,27.40
2018-10-17T17:35:41.465Z,30.77
2018-10-17T17:38:13.489Z,30.93
2018-10-17T17:40:45.482Z,29.57
2018-10-17T17:43:17.504Z,30.60
2018-10-17T17:45:49.498Z,30.27
2018-10-17T17:48:21.514Z,33.73
2018-10-17T17:50:53.555Z,31.17
2018-10-17T17:53:25.558Z,33.80
2018-10-17T17:55:57.594Z,37.47
2018-10-17T17:58:29.745Z,37.23
2018-10-17T18:01:01.659Z,35.63
2018-10-17T18:03:33.730Z,35.40
2018-10-17T18:06:05.719Z,34.80
2018-10-17T18:08:37.734Z,37.00
2018-10-17T18:11:16.374Z,36.20
2018-10-17T18:13:49.005Z,37.00
2018-10-17T18:16:21.168Z,37.13
2018-10-17T18:18:53.708Z,32.53
2018-10-17T18:21:26.034Z,35.50
2018-10-17T18:23:58.136Z,34.03
2018-10-17T18:26:30.172Z,35.07
2018-10-17T18:29:02.207Z,36.17
2018-10-17T18:31:34.280Z,35.80
2018-10-17T18:34:06.412Z,34.53
2018-10-17T18:36:38.362Z,34.43
2018-10-17T18:39:10.378Z,34.37
2018-10-17T18:41:42.389Z,34.57
2018-10-17T18:44:14.573Z,35.23
2018-10-17T18:46:46.642Z,35.27
2018-10-17T18:49:18.755Z,36.17
2018-10-17T18:51:50.730Z,35.40
2018-10-17T18:54:22.758Z,32.10
2018-10-17T18:56:54.793Z,33.97
2018-10-17T18:59:26.918Z,34.73
2018-10-17T19:01:58.937Z,35.30
2018-10-17T19:04:30.969Z,35.50
2018-10-17T19:07:03.082Z,35.50
2018-10-17T19:09:35.101Z,35.17
2018-10-17T19:12:07.109Z,34.03
2018-10-17T19:14:39.125Z,34.93
2018-10-17T19:17:11.174Z,35.30
2018-10-17T19:19:43.182Z,38.10
2018-10-17T19:22:15.229Z,38.90
2018-10-17T19:24:47.307Z,37.73
2018-10-17T19:27:19.292Z,40.77
2018-10-17T19:29:51.396Z,41.17
2018-10-17T19:32:23.443Z,39.90
2018-10-17T19:34:55.513Z,40.77
2018-10-17T19:37:27.580Z,41.43
2018-10-17T19:39:59.652Z,43.77
2018-10-17T19:42:31.669Z,43.73
2018-10-17T19:45:04.435Z,42.57
2018-10-17T19:47:36.463Z,40.77
2018-10-17T19:50:08.870Z,39.00
2018-10-17T19:52:40.893Z,41.63
2018-10-17T19:55:12.906Z,43.87
2018-10-17T19:57:44.915Z,43.07
2018-10-17T20:00:16.946Z,42.27
2018-10-17T20:02:48.950Z,42.40
2018-10-17T20:05:20.997Z,39.37
2018-10-17T20:07:52.990Z,38.33
2018-10-17T20:10:25.029Z,41.67
2018-10-17T20:12:57.031Z,45.40
2018-10-17T20:15:29.069Z,41.23
2018-10-17T20:18:01.067Z,42.80
2018-10-17T20:20:33.088Z,42.63
2018-10-17T20:23:05.090Z,41.97
2018-10-17T20:25:37.077Z,42.20
2018-10-17T20:28:09.090Z,41.03
2018-10-17T20:30:41.183Z,45.27
2018-10-17T20:33:13.442Z,44.43
2018-10-17T20:35:45.428Z,45.10
2018-10-17T20:38:17.409Z,44.03
2018-10-17T20:40:49.423Z,43.23
2018-10-17T20:43:21.453Z,43.10
2018-10-17T20:45:53.460Z,41.43
2018-10-17T20:48:25.432Z,46.27
2018-10-17T20:50:57.485Z,46.03
2018-10-17T20:53:29.458Z,47.30
2018-10-17T20:56:01.525Z,52.63
2018-10-17T20:58:33.498Z,49.00
2018-10-17T21:01:05.623Z,51.60
2018-10-17T21:03:37.642Z,52.67
2018-10-17T21:06:09.686Z,53.27
2018-10-17T21:08:41.759Z,49.73
2018-10-17T21:11:13.864Z,47.23
2018-10-17T21:13:46.531Z,46.10
2018-10-17T21:16:18.978Z,49.57
2018-10-17T21:18:51.452Z,44.80
2018-10-17T21:21:23.557Z,43.33
2018-10-17T21:23:55.967Z,42.17
2018-10-17T21:26:28.185Z,44.50
2018-10-17T21:29:00.803Z,45.07
2018-10-17T21:31:33.134Z,44.13
2018-10-17T21:34:05.680Z,47.47
2018-10-17T21:36:37.917Z,57.07
2018-10-17T21:39:11.738Z,55.97
2018-10-17T21:41:44.099Z,58.67
2018-10-17T21:44:16.551Z,58.10
2018-10-17T21:46:48.799Z,49.67
2018-10-17T21:49:21.210Z,50.80
2018-10-17T21:51:53.222Z,47.07
2018-10-17T21:54:25.472Z,44.13
2018-10-17T21:56:57.678Z,47.00
2018-10-17T21:59:29.884Z,56.97
2018-10-17T22:02:02.571Z,56.13
2018-10-17T22:04:34.985Z,57.57
2018-10-17T22:07:07.200Z,54.97
2018-10-17T22:09:39.669Z,50.73
2018-10-17T22:12:12.261Z,48.00
2018-10-17T22:14:44.722Z,48.47
2018-10-17T22:17:21.653Z,50.57
2018-10-17T22:19:54.245Z,56.07
2018-10-17T22:22:27.062Z,54.50
2018-10-17T22:24:59.557Z,55.77
2018-10-17T22:27:31.953Z,51.37
2018-10-17T22:30:05.064Z,50.23
2018-10-17T22:32:37.246Z,50.20
2018-10-17T22:35:09.541Z,48.93
2018-10-17T22:37:41.868Z,48.60
2018-10-17T22:40:14.233Z,50.33
2018-10-17T22:42:46.579Z,54.97
2018-10-17T22:45:18.978Z,56.13
2018-10-17T22:47:51.459Z,59.03
2018-10-17T22:50:23.732Z,57.47
2018-10-17T22:52:56.108Z,56.90
2018-10-17T22:55:28.641Z,51.90
2018-10-17T22:58:01.213Z,52.27
2018-10-17T23:00:33.651Z,55.47
2018-10-17T23:03:06.073Z,49.53
2018-10-17T23:05:38.637Z,48.20
2018-10-17T23:08:11.198Z,51.33
2018-10-17T23:10:43.626Z,58.63
2018-10-17T23:13:15.866Z,49.70
2018-10-17T23:15:48.238Z,51.93
2018-10-17T23:18:20.763Z,48.83
2018-10-17T23:20:53.113Z,50.73
2018-10-17T23:23:25.429Z,46.03
2018-10-17T23:25:57.787Z,44.43
2018-10-17T23:28:30.069Z,46.97
2018-10-17T23:31:02.319Z,46.53
2018-10-17T23:33:34.563Z,46.40
2018-10-17T23:36:06.781Z,46.50
2018-10-17T23:38:39.373Z,43.37
2018-10-17T23:41:11.825Z,46.53
2018-10-17T23:43:44.206Z,45.50
2018-10-17T23:46:16.740Z,46.90
2018-10-17T23:48:49.145Z,49.43
2018-10-17T23:51:21.526Z,50.77
2018-10-17T23:53:53.858Z,52.13
2018-10-17T23:56:26.326Z,49.70
2018-10-17T23:58:58.816Z,47.67
